sensor_id;sensor_type;location;lat;lon;timestamp;temperature;humidity
68189;DHT22;66299;47.514;19.218;2023-01-30T00:01:33;-4.18;92.26
68189;DHT22;66299;47.514;19.218;2023-01-30T00:04:03;-4.25;92.21
68189;DHT22;66299;47.514;19.218;2023-01-30T00:06:32;-4.13;91.76
68189;DHT22;66299;47.514;19.218;2023-01-30T00:09:00;-4.17;91.74
68189;DHT22;66299;47.514;19.218;2023-01-30T00:11:31;-4.23;92.21
68189;DHT22;66299;47.514;19.218;2023-01-30T00:14:00;-4.20;92.20
68189;DHT22;66299;47.514;19.218;2023-01-30T00:16:31;-4.25;92.28
68189;DHT22;66299;47.514;19.218;2023-01-30T00:19:01;-4.25;92.56
68189;DHT22;66299;47.514;19.218;2023-01-30T00:21:30;-4.31;92.38
68189;DHT22;66299;47.514;19.218;2023-01-30T00:24:00;-4.28;92.51
68189;DHT22;66299;47.514;19.218;2023-01-30T00:26:28;-4.33;92.65
68189;DHT22;66299;47.514;19.218;2023-01-30T00:28:57;-4.30;92.26
68189;DHT22;66299;47.514;19.218;2023-01-30T00:31:25;-4.35;92.87
68189;DHT22;66299;47.514;19.218;2023-01-30T00:33:56;-4.31;92.64
68189;DHT22;66299;47.514;19.218;2023-01-30T00:36:25;-4.16;92.20
68189;DHT22;66299;47.514;19.218;2023-01-30T00:38:55;-4.17;91.97
68189;DHT22;66299;47.514;19.218;2023-01-30T00:41:25;-4.16;91.75
68189;DHT22;66299;47.514;19.218;2023-01-30T00:44:17;-4.17;91.58
68189;DHT22;66299;47.514;19.218;2023-01-30T00:47:03;-4.02;90.89
68189;DHT22;66299;47.514;19.218;2023-01-30T00:49:35;-4.07;91.11
68189;DHT22;66299;47.514;19.218;2023-01-30T00:52:07;-4.07;91.06
68189;DHT22;66299;47.514;19.218;2023-01-30T00:54:38;-4.18;91.53
68189;DHT22;66299;47.514;19.218;2023-01-30T00:57:07;-4.24;91.75
68189;DHT22;66299;47.514;19.218;2023-01-30T00:59:41;-4.28;92.16
68189;DHT22;66299;47.514;19.218;2023-01-30T01:02:11;-4.30;92.13
68189;DHT22;66299;47.514;19.218;2023-01-30T01:04:41;-4.34;92.20
68189;DHT22;66299;47.514;19.218;2023-01-30T01:07:10;-4.35;92.28
68189;DHT22;66299;47.514;19.218;2023-01-30T01:09:44;-4.20;91.73
68189;DHT22;66299;47.514;19.218;2023-01-30T01:12:16;-4.27;91.97
68189;DHT22;66299;47.514;19.218;2023-01-30T01:14:48;-4.21;91.66
68189;DHT22;66299;47.514;19.218;2023-01-30T01:17:17;-4.17;91.58
68189;DHT22;66299;47.514;19.218;2023-01-30T01:19:45;-4.21;91.95
68189;DHT22;66299;47.514;19.218;2023-01-30T01:22:15;-4.23;92.08
68189;DHT22;66299;47.514;19.218;2023-01-30T01:24:45;-4.34;92.08
68189;DHT22;66299;47.514;19.218;2023-01-30T01:27:15;-4.41;92.76
68189;DHT22;66299;47.514;19.218;2023-01-30T01:29:46;-4.41;92.69
68189;DHT22;66299;47.514;19.218;2023-01-30T01:32:23;-4.45;92.75
68189;DHT22;66299;47.514;19.218;2023-01-30T01:35:04;-4.51;93.19
68189;DHT22;66299;47.514;19.218;2023-01-30T01:37:32;-4.57;93.43
68189;DHT22;66299;47.514;19.218;2023-01-30T01:40:02;-4.69;93.60
68189;DHT22;66299;47.514;19.218;2023-01-30T01:42:48;-4.68;93.68
68189;DHT22;66299;47.514;19.218;2023-01-30T01:45:19;-4.61;93.48
68189;DHT22;66299;47.514;19.218;2023-01-30T01:47:52;-4.62;93.36
68189;DHT22;66299;47.514;19.218;2023-01-30T01:50:44;-4.62;93.55
68189;DHT22;66299;47.514;19.218;2023-01-30T01:53:14;-4.62;93.21
68189;DHT22;66299;47.514;19.218;2023-01-30T01:55:47;-4.68;93.47
68189;DHT22;66299;47.514;19.218;2023-01-30T01:58:18;-4.61;93.70
68189;DHT22;66299;47.514;19.218;2023-01-30T02:00:47;-4.64;93.47
68189;DHT22;66299;47.514;19.218;2023-01-30T02:03:20;-4.60;93.40
68189;DHT22;66299;47.514;19.218;2023-01-30T02:05:50;-4.66;93.22
68189;DHT22;66299;47.514;19.218;2023-01-30T02:08:20;-4.69;93.52
68189;DHT22;66299;47.514;19.218;2023-01-30T02:10:52;-4.68;93.71
68189;DHT22;66299;47.514;19.218;2023-01-30T02:13:21;-4.81;93.31
68189;DHT22;66299;47.514;19.218;2023-01-30T02:15:50;-4.78;93.73
68189;DHT22;66299;47.514;19.218;2023-01-30T02:18:25;-4.85;93.76
68189;DHT22;66299;47.514;19.218;2023-01-30T02:20:56;-4.85;94.07
68189;DHT22;66299;47.514;19.218;2023-01-30T02:23:40;-4.88;94.11
68189;DHT22;66299;47.514;19.218;2023-01-30T02:29:15;-4.85;94.06
68189;DHT22;66299;47.514;19.218;2023-01-30T02:31:56;-4.73;93.93
68189;DHT22;66299;47.514;19.218;2023-01-30T02:34:34;-4.72;94.01
68189;DHT22;66299;47.514;19.218;2023-01-30T02:37:08;-4.64;93.73
68189;DHT22;66299;47.514;19.218;2023-01-30T02:39:43;-4.68;93.77
68189;DHT22;66299;47.514;19.218;2023-01-30T02:42:18;-4.83;93.84
68189;DHT22;66299;47.514;19.218;2023-01-30T02:44:49;-4.78;94.32
68189;DHT22;66299;47.514;19.218;2023-01-30T02:47:23;-4.79;94.47
68189;DHT22;66299;47.514;19.218;2023-01-30T02:49:53;-4.81;94.49
68189;DHT22;66299;47.514;19.218;2023-01-30T02:52:27;-4.85;94.49
68189;DHT22;66299;47.514;19.218;2023-01-30T02:54:56;-4.86;94.75
68189;DHT22;66299;47.514;19.218;2023-01-30T02:57:28;-4.88;95.19
68189;DHT22;66299;47.514;19.218;2023-01-30T02:59:58;-4.88;95.11
68189;DHT22;66299;47.514;19.218;2023-01-30T03:05:26;-5.14;95.36
68189;DHT22;66299;47.514;19.218;2023-01-30T03:08:02;-5.28;96.02
68189;DHT22;66299;47.514;19.218;2023-01-30T03:10:36;-5.41;95.69
68189;DHT22;66299;47.514;19.218;2023-01-30T03:13:08;-5.40;95.93
68189;DHT22;66299;47.514;19.218;2023-01-30T03:15:40;-5.43;96.03
68189;DHT22;66299;47.514;19.218;2023-01-30T03:18:10;-5.54;95.85
68189;DHT22;66299;47.514;19.218;2023-01-30T03:20:39;-5.54;96.61
68189;DHT22;66299;47.514;19.218;2023-01-30T03:23:13;-5.54;96.18
68189;DHT22;66299;47.514;19.218;2023-01-30T03:25:43;-5.47;96.73
68189;DHT22;66299;47.514;19.218;2023-01-30T03:28:13;-5.41;96.47
68189;DHT22;66299;47.514;19.218;2023-01-30T03:30:43;-5.26;96.62
68189;DHT22;66299;47.514;19.218;2023-01-30T03:33:11;-5.31;96.33
68189;DHT22;66299;47.514;19.218;2023-01-30T03:35:41;-5.30;96.33
68189;DHT22;66299;47.514;19.218;2023-01-30T03:38:10;-5.30;96.31
68189;DHT22;66299;47.514;19.218;2023-01-30T03:40:41;-5.33;96.56
68189;DHT22;66299;47.514;19.218;2023-01-30T03:43:11;-5.33;96.56
68189;DHT22;66299;47.514;19.218;2023-01-30T03:45:41;-5.37;96.57
68189;DHT22;66299;47.514;19.218;2023-01-30T03:48:12;-5.46;96.50
68189;DHT22;66299;47.514;19.218;2023-01-30T03:50:42;-5.54;97.01
68189;DHT22;66299;47.514;19.218;2023-01-30T03:53:10;-5.54;96.96
68189;DHT22;66299;47.514;19.218;2023-01-30T03:55:39;-5.61;97.13
68189;DHT22;66299;47.514;19.218;2023-01-30T03:58:07;-5.67;97.27
68189;DHT22;66299;47.514;19.218;2023-01-30T04:00:36;-5.65;97.19
68189;DHT22;66299;47.514;19.218;2023-01-30T04:03:04;-5.75;97.06
68189;DHT22;66299;47.514;19.218;2023-01-30T04:05:34;-5.60;97.27
68189;DHT22;66299;47.514;19.218;2023-01-30T04:08:03;-5.70;97.51
68189;DHT22;66299;47.514;19.218;2023-01-30T04:10:33;-5.71;97.01
68189;DHT22;66299;47.514;19.218;2023-01-30T04:13:03;-5.74;97.57
68189;DHT22;66299;47.514;19.218;2023-01-30T04:15:31;-5.75;97.87
68189;DHT22;66299;47.514;19.218;2023-01-30T04:18:00;-5.88;97.56
68189;DHT22;66299;47.514;19.218;2023-01-30T04:20:30;-6.00;97.87
68189;DHT22;66299;47.514;19.218;2023-01-30T04:22:58;-5.98;97.46
68189;DHT22;66299;47.514;19.218;2023-01-30T04:25:31;-6.05;97.79
68189;DHT22;66299;47.514;19.218;2023-01-30T04:28:00;-6.02;97.92
68189;DHT22;66299;47.514;19.218;2023-01-30T04:30:29;-6.05;97.78
68189;DHT22;66299;47.514;19.218;2023-01-30T04:32:57;-5.96;98.68
68189;DHT22;66299;47.514;19.218;2023-01-30T04:35:25;-5.91;98.87
68189;DHT22;66299;47.514;19.218;2023-01-30T04:37:55;-5.91;98.34
68189;DHT22;66299;47.514;19.218;2023-01-30T04:40:23;-5.85;98.92
68189;DHT22;66299;47.514;19.218;2023-01-30T04:42:53;-5.93;98.07
68189;DHT22;66299;47.514;19.218;2023-01-30T04:45:21;-6.03;98.21
68189;DHT22;66299;47.514;19.218;2023-01-30T04:47:50;-6.03;98.44
68189;DHT22;66299;47.514;19.218;2023-01-30T04:50:19;-5.92;98.82
68189;DHT22;66299;47.514;19.218;2023-01-30T04:52:47;-6.05;98.01
68189;DHT22;66299;47.514;19.218;2023-01-30T04:55:32;-6.05;98.72
68189;DHT22;66299;47.514;19.218;2023-01-30T04:58:02;-6.13;98.24
68189;DHT22;66299;47.514;19.218;2023-01-30T05:00:31;-6.20;98.80
68189;DHT22;66299;47.514;19.218;2023-01-30T05:03:00;-6.26;98.52
68189;DHT22;66299;47.514;19.218;2023-01-30T05:05:30;-6.30;98.78
68189;DHT22;66299;47.514;19.218;2023-01-30T05:08:00;-6.27;98.44
68189;DHT22;66299;47.514;19.218;2023-01-30T05:10:30;-6.29;98.46
68189;DHT22;66299;47.514;19.218;2023-01-30T05:13:04;-6.29;98.68
68189;DHT22;66299;47.514;19.218;2023-01-30T05:15:34;-6.38;98.57
68189;DHT22;66299;47.514;19.218;2023-01-30T05:18:04;-6.34;98.98
68189;DHT22;66299;47.514;19.218;2023-01-30T05:20:32;-6.47;98.95
68189;DHT22;66299;47.514;19.218;2023-01-30T05:23:00;-6.36;99.56
68189;DHT22;66299;47.514;19.218;2023-01-30T05:25:29;-6.48;98.55
68189;DHT22;66299;47.514;19.218;2023-01-30T05:27:57;-6.36;99.49
68189;DHT22;66299;47.514;19.218;2023-01-30T05:30:28;-6.29;99.49
68189;DHT22;66299;47.514;19.218;2023-01-30T05:32:57;-6.38;99.03
68189;DHT22;66299;47.514;19.218;2023-01-30T05:35:25;-6.44;99.31
68189;DHT22;66299;47.514;19.218;2023-01-30T05:37:54;-6.60;98.57
68189;DHT22;66299;47.514;19.218;2023-01-30T05:40:25;-6.68;98.50
68189;DHT22;66299;47.514;19.218;2023-01-30T05:42:57;-6.55;99.53
68189;DHT22;66299;47.514;19.218;2023-01-30T05:45:26;-6.47;99.69
68189;DHT22;66299;47.514;19.218;2023-01-30T05:47:57;-6.50;99.50
68189;DHT22;66299;47.514;19.218;2023-01-30T05:50:29;-6.55;99.57
68189;DHT22;66299;47.514;19.218;2023-01-30T05:52:58;-6.60;99.56
68189;DHT22;66299;47.514;19.218;2023-01-30T05:55:28;-6.58;99.31
68189;DHT22;66299;47.514;19.218;2023-01-30T05:57:56;-6.54;99.59
68189;DHT22;66299;47.514;19.218;2023-01-30T06:00:26;-6.61;99.14
68189;DHT22;66299;47.514;19.218;2023-01-30T06:02:58;-6.60;99.65
68189;DHT22;66299;47.514;19.218;2023-01-30T06:05:30;-6.55;99.52
68189;DHT22;66299;47.514;19.218;2023-01-30T06:07:59;-6.44;99.97
68189;DHT22;66299;47.514;19.218;2023-01-30T06:10:27;-6.61;98.79
68189;DHT22;66299;47.514;19.218;2023-01-30T06:12:57;-6.64;99.34
68189;DHT22;66299;47.514;19.218;2023-01-30T06:15:25;-6.62;99.66
68189;DHT22;66299;47.514;19.218;2023-01-30T06:17:54;-6.14;99.99
68189;DHT22;66299;47.514;19.218;2023-01-30T06:20:24;-6.26;99.05
68189;DHT22;66299;47.514;19.218;2023-01-30T06:22:53;-6.52;98.66
68189;DHT22;66299;47.514;19.218;2023-01-30T06:25:21;-6.57;98.83
68189;DHT22;66299;47.514;19.218;2023-01-30T06:27:49;-6.61;99.02
68189;DHT22;66299;47.514;19.218;2023-01-30T06:30:19;-6.50;99.35
68189;DHT22;66299;47.514;19.218;2023-01-30T06:32:50;-6.37;99.58
68189;DHT22;66299;47.514;19.218;2023-01-30T06:35:21;-6.21;99.99
68189;DHT22;66299;47.514;19.218;2023-01-30T06:37:50;-5.99;99.99
68189;DHT22;66299;47.514;19.218;2023-01-30T06:40:20;-5.68;99.99
68189;DHT22;66299;47.514;19.218;2023-01-30T06:42:49;-5.33;99.75
68189;DHT22;66299;47.514;19.218;2023-01-30T06:45:17;-5.12;99.16
68189;DHT22;66299;47.514;19.218;2023-01-30T06:47:49;-5.02;99.08
68189;DHT22;66299;47.514;19.218;2023-01-30T06:50:20;-4.72;98.17
68189;DHT22;66299;47.514;19.218;2023-01-30T06:52:49;-4.60;97.52
68189;DHT22;66299;47.514;19.218;2023-01-30T06:55:22;-4.38;97.32
68189;DHT22;66299;47.514;19.218;2023-01-30T06:57:59;-4.30;97.13
68189;DHT22;66299;47.514;19.218;2023-01-30T07:00:29;-4.21;96.79
68189;DHT22;66299;47.514;19.218;2023-01-30T07:02:58;-4.14;96.55
68189;DHT22;66299;47.514;19.218;2023-01-30T07:05:28;-3.95;96.63
68189;DHT22;66299;47.514;19.218;2023-01-30T07:07:57;-3.90;95.92
68189;DHT22;66299;47.514;19.218;2023-01-30T07:10:29;-3.78;96.03
68189;DHT22;66299;47.514;19.218;2023-01-30T07:13:00;-3.71;95.72
68189;DHT22;66299;47.514;19.218;2023-01-30T07:15:30;-3.61;95.25
68189;DHT22;66299;47.514;19.218;2023-01-30T07:18:00;-3.55;96.12
68189;DHT22;66299;47.514;19.218;2023-01-30T07:20:28;-3.45;95.29
68189;DHT22;66299;47.514;19.218;2023-01-30T07:22:57;-3.41;95.70
68189;DHT22;66299;47.514;19.218;2023-01-30T07:25:30;-3.34;95.29
68189;DHT22;66299;47.514;19.218;2023-01-30T07:28:00;-3.28;95.18
68189;DHT22;66299;47.514;19.218;2023-01-30T07:30:31;-3.16;94.69
68189;DHT22;66299;47.514;19.218;2023-01-30T07:33:05;-3.01;94.97
68189;DHT22;66299;47.514;19.218;2023-01-30T07:35:35;-2.86;93.96
68189;DHT22;66299;47.514;19.218;2023-01-30T07:38:04;-2.85;95.21
68189;DHT22;66299;47.514;19.218;2023-01-30T07:40:36;-2.70;93.77
68189;DHT22;66299;47.514;19.218;2023-01-30T07:43:06;-2.62;93.02
68189;DHT22;66299;47.514;19.218;2023-01-30T07:45:36;-2.55;92.77
68189;DHT22;66299;47.514;19.218;2023-01-30T07:48:08;-2.41;92.42
68189;DHT22;66299;47.514;19.218;2023-01-30T07:50:37;-2.36;92.53
68189;DHT22;66299;47.514;19.218;2023-01-30T07:53:08;-2.23;92.05
68189;DHT22;66299;47.514;19.218;2023-01-30T07:55:39;-2.18;91.91
68189;DHT22;66299;47.514;19.218;2023-01-30T07:58:12;-2.11;92.17
68189;DHT22;66299;47.514;19.218;2023-01-30T08:00:43;-2.06;92.38
68189;DHT22;66299;47.514;19.218;2023-01-30T08:03:16;-1.96;92.06
68189;DHT22;66299;47.514;19.218;2023-01-30T08:05:45;-1.91;92.91
68189;DHT22;66299;47.514;19.218;2023-01-30T08:08:14;-1.87;92.98
68189;DHT22;66299;47.514;19.218;2023-01-30T08:10:49;-1.78;92.16
68189;DHT22;66299;47.514;19.218;2023-01-30T08:13:18;-1.66;91.71
68189;DHT22;66299;47.514;19.218;2023-01-30T08:15:46;-1.65;91.69
68189;DHT22;66299;47.514;19.218;2023-01-30T08:18:15;-1.55;92.06
68189;DHT22;66299;47.514;19.218;2023-01-30T08:20:44;-1.45;91.82
68189;DHT22;66299;47.514;19.218;2023-01-30T08:23:15;-1.37;91.32
68189;DHT22;66299;47.514;19.218;2023-01-30T08:25:47;-1.24;90.46
68189;DHT22;66299;47.514;19.218;2023-01-30T08:28:19;-1.21;90.05
68189;DHT22;66299;47.514;19.218;2023-01-30T08:30:48;-1.08;89.71
68189;DHT22;66299;47.514;19.218;2023-01-30T08:33:21;-1.11;89.59
68189;DHT22;66299;47.514;19.218;2023-01-30T08:35:53;-0.96;89.55
68189;DHT22;66299;47.514;19.218;2023-01-30T08:38:26;-0.93;89.71
68189;DHT22;66299;47.514;19.218;2023-01-30T08:40:54;-0.92;89.83
68189;DHT22;66299;47.514;19.218;2023-01-30T08:43:27;-0.82;89.46
68189;DHT22;66299;47.514;19.218;2023-01-30T08:45:55;-0.76;88.67
68189;DHT22;66299;47.514;19.218;2023-01-30T08:48:26;-0.65;88.34
68189;DHT22;66299;47.514;19.218;2023-01-30T08:51:06;-0.69;88.25
68189;DHT22;66299;47.514;19.218;2023-01-30T08:53:38;-0.72;88.25
68189;DHT22;66299;47.514;19.218;2023-01-30T08:56:07;-0.62;88.76
68189;DHT22;66299;47.514;19.218;2023-01-30T08:58:37;-0.59;88.39
68189;DHT22;66299;47.514;19.218;2023-01-30T09:01:07;-0.62;88.77
68189;DHT22;66299;47.514;19.218;2023-01-30T09:03:39;-0.58;88.12
68189;DHT22;66299;47.514;19.218;2023-01-30T09:06:09;-0.46;88.22
68189;DHT22;66299;47.514;19.218;2023-01-30T09:08:38;-0.51;88.36
68189;DHT22;66299;47.514;19.218;2023-01-30T09:11:09;-0.41;88.19
68189;DHT22;66299;47.514;19.218;2023-01-30T09:13:40;-0.35;87.70
68189;DHT22;66299;47.514;19.218;2023-01-30T09:16:14;-0.31;87.58
68189;DHT22;66299;47.514;19.218;2023-01-30T09:18:43;-0.19;87.42
68189;DHT22;66299;47.514;19.218;2023-01-30T09:21:13;-0.15;87.39
68189;DHT22;66299;47.514;19.218;2023-01-30T09:23:43;-0.07;87.23
68189;DHT22;66299;47.514;19.218;2023-01-30T09:26:13;0.02;87.00
68189;DHT22;66299;47.514;19.218;2023-01-30T09:28:42;0.00;87.90
68189;DHT22;66299;47.514;19.218;2023-01-30T09:31:11;0.07;87.51
68189;DHT22;66299;47.514;19.218;2023-01-30T09:33:44;0.13;87.13
68189;DHT22;66299;47.514;19.218;2023-01-30T09:36:12;0.09;86.76
68189;DHT22;66299;47.514;19.218;2023-01-30T09:38:40;-0.04;86.80
68189;DHT22;66299;47.514;19.218;2023-01-30T09:41:24;-0.21;87.32
68189;DHT22;66299;47.514;19.218;2023-01-30T09:44:09;-0.15;87.68
68189;DHT22;66299;47.514;19.218;2023-01-30T09:46:43;-0.05;87.14
68189;DHT22;66299;47.514;19.218;2023-01-30T09:49:21;-0.01;87.66
68189;DHT22;66299;47.514;19.218;2023-01-30T09:51:57;0.02;87.73
68189;DHT22;66299;47.514;19.218;2023-01-30T09:54:28;0.10;86.96
68189;DHT22;66299;47.514;19.218;2023-01-30T09:57:00;-0.22;87.51
68189;DHT22;66299;47.514;19.218;2023-01-30T09:59:52;-0.08;87.88
68189;DHT22;66299;47.514;19.218;2023-01-30T10:02:29;-0.11;87.55
68189;DHT22;66299;47.514;19.218;2023-01-30T10:05:00;-0.11;88.01
68189;DHT22;66299;47.514;19.218;2023-01-30T10:07:31;-0.04;88.03
68189;DHT22;66299;47.514;19.218;2023-01-30T10:10:03;-0.10;88.14
68189;DHT22;66299;47.514;19.218;2023-01-30T10:12:39;-0.07;88.28
68189;DHT22;66299;47.514;19.218;2023-01-30T10:15:19;0.05;87.70
68189;DHT22;66299;47.514;19.218;2023-01-30T10:18:04;0.05;87.83
68189;DHT22;66299;47.514;19.218;2023-01-30T10:20:40;0.33;87.65
68189;DHT22;66299;47.514;19.218;2023-01-30T10:26:01;0.74;85.90
68189;DHT22;66299;47.514;19.218;2023-01-30T10:28:32;0.76;86.07
68189;DHT22;66299;47.514;19.218;2023-01-30T10:31:07;1.07;85.55
68189;DHT22;66299;47.514;19.218;2023-01-30T10:33:37;1.04;84.73
68189;DHT22;66299;47.514;19.218;2023-01-30T10:36:11;1.02;84.71
68189;DHT22;66299;47.514;19.218;2023-01-30T10:38:43;0.96;85.23
68189;DHT22;66299;47.514;19.218;2023-01-30T10:41:19;0.97;85.13
68189;DHT22;66299;47.514;19.218;2023-01-30T10:43:57;1.16;84.92
68189;DHT22;66299;47.514;19.218;2023-01-30T10:46:37;1.29;84.37
68189;DHT22;66299;47.514;19.218;2023-01-30T10:49:12;1.31;84.54
68189;DHT22;66299;47.514;19.218;2023-01-30T10:51:44;1.33;84.50
68189;DHT22;66299;47.514;19.218;2023-01-30T10:54:19;1.29;83.97
68189;DHT22;66299;47.514;19.218;2023-01-30T10:56:53;1.27;84.17
68189;DHT22;66299;47.514;19.218;2023-01-30T10:59:26;1.17;84.19
68189;DHT22;66299;47.514;19.218;2023-01-30T11:02:01;1.22;84.66
68189;DHT22;66299;47.514;19.218;2023-01-30T11:04:35;1.29;84.31
68189;DHT22;66299;47.514;19.218;2023-01-30T11:07:05;1.27;84.31
68189;DHT22;66299;47.514;19.218;2023-01-30T11:09:37;1.20;84.46
68189;DHT22;66299;47.514;19.218;2023-01-30T11:12:07;1.20;84.73
68189;DHT22;66299;47.514;19.218;2023-01-30T11:14:54;1.19;84.98
68189;DHT22;66299;47.514;19.218;2023-01-30T11:17:31;1.06;85.29
68189;DHT22;66299;47.514;19.218;2023-01-30T11:20:01;1.12;85.67
68189;DHT22;66299;47.514;19.218;2023-01-30T11:22:32;1.19;85.28
68189;DHT22;66299;47.514;19.218;2023-01-30T11:25:03;1.17;85.12
68189;DHT22;66299;47.514;19.218;2023-01-30T11:27:33;1.09;85.65
68189;DHT22;66299;47.514;19.218;2023-01-30T11:30:09;1.09;85.78
68189;DHT22;66299;47.514;19.218;2023-01-30T11:32:41;1.17;86.30
68189;DHT22;66299;47.514;19.218;2023-01-30T11:35:18;1.17;85.90
68189;DHT22;66299;47.514;19.218;2023-01-30T11:37:49;1.26;86.23
68189;DHT22;66299;47.514;19.218;2023-01-30T11:40:24;1.33;85.80
68189;DHT22;66299;47.514;19.218;2023-01-30T11:43:01;1.29;86.07
68189;DHT22;66299;47.514;19.218;2023-01-30T11:45:34;1.36;86.24
68189;DHT22;66299;47.514;19.218;2023-01-30T11:48:12;1.47;85.85
68189;DHT22;66299;47.514;19.218;2023-01-30T11:51:03;1.48;86.15
68189;DHT22;66299;47.514;19.218;2023-01-30T11:53:36;1.50;86.07
68189;DHT22;66299;47.514;19.218;2023-01-30T11:56:08;1.58;85.92
68189;DHT22;66299;47.514;19.218;2023-01-30T11:58:38;1.60;85.95
68189;DHT22;66299;47.514;19.218;2023-01-30T12:01:08;1.48;86.26
68189;DHT22;66299;47.514;19.218;2023-01-30T12:03:43;1.43;86.88
68189;DHT22;66299;47.514;19.218;2023-01-30T12:06:19;1.31;86.91
68189;DHT22;66299;47.514;19.218;2023-01-30T12:08:50;1.31;87.22
68189;DHT22;66299;47.514;19.218;2023-01-30T12:11:28;1.39;87.17
68189;DHT22;66299;47.514;19.218;2023-01-30T12:14:03;1.41;87.01
68189;DHT22;66299;47.514;19.218;2023-01-30T12:16:40;1.43;87.01
68189;DHT22;66299;47.514;19.218;2023-01-30T12:19:19;1.44;87.02
68189;DHT22;66299;47.514;19.218;2023-01-30T12:21:55;1.40;87.01
68189;DHT22;66299;47.514;19.218;2023-01-30T12:24:27;1.34;87.01
68189;DHT22;66299;47.514;19.218;2023-01-30T12:27:00;1.22;87.45
68189;DHT22;66299;47.514;19.218;2023-01-30T12:29:32;1.22;87.45
68189;DHT22;66299;47.514;19.218;2023-01-30T12:32:04;1.23;87.55
68189;DHT22;66299;47.514;19.218;2023-01-30T12:34:33;1.20;87.52
68189;DHT22;66299;47.514;19.218;2023-01-30T12:37:21;1.23;87.22
68189;DHT22;66299;47.514;19.218;2023-01-30T12:39:57;1.24;86.86
68189;DHT22;66299;47.514;19.218;2023-01-30T12:42:34;1.20;86.92
68189;DHT22;66299;47.514;19.218;2023-01-30T12:45:16;1.27;86.63
68189;DHT22;66299;47.514;19.218;2023-01-30T12:47:59;1.22;86.90
68189;DHT22;66299;47.514;19.218;2023-01-30T12:50:33;1.33;86.62
68189;DHT22;66299;47.514;19.218;2023-01-30T12:53:09;1.29;86.39
68189;DHT22;66299;47.514;19.218;2023-01-30T12:55:45;1.48;85.94
68189;DHT22;66299;47.514;19.218;2023-01-30T12:58:16;1.57;85.85
68189;DHT22;66299;47.514;19.218;2023-01-30T13:00:52;1.48;86.29
68189;DHT22;66299;47.514;19.218;2023-01-30T13:03:29;1.58;85.59
68189;DHT22;66299;47.514;19.218;2023-01-30T13:06:07;1.50;85.81
68189;DHT22;66299;47.514;19.218;2023-01-30T13:08:41;1.55;85.40
68189;DHT22;66299;47.514;19.218;2023-01-30T13:11:16;1.58;84.53
68189;DHT22;66299;47.514;19.218;2023-01-30T13:13:51;1.55;84.99
68189;DHT22;66299;47.514;19.218;2023-01-30T13:16:25;1.64;84.68
68189;DHT22;66299;47.514;19.218;2023-01-30T13:18:56;1.64;84.73
68189;DHT22;66299;47.514;19.218;2023-01-30T13:21:33;1.64;84.90
68189;DHT22;66299;47.514;19.218;2023-01-30T13:24:10;1.64;84.57
68189;DHT22;66299;47.514;19.218;2023-01-30T13:26:40;1.58;84.58
68189;DHT22;66299;47.514;19.218;2023-01-30T13:29:12;1.54;84.42
68189;DHT22;66299;47.514;19.218;2023-01-30T13:31:46;1.55;84.69
68189;DHT22;66299;47.514;19.218;2023-01-30T13:34:21;1.55;84.12
68189;DHT22;66299;47.514;19.218;2023-01-30T13:36:57;1.50;84.35
68189;DHT22;66299;47.514;19.218;2023-01-30T13:39:31;1.50;84.60
68189;DHT22;66299;47.514;19.218;2023-01-30T13:42:00;1.52;84.61
68189;DHT22;66299;47.514;19.218;2023-01-30T13:44:30;1.61;84.64
68189;DHT22;66299;47.514;19.218;2023-01-30T13:47:03;1.61;84.80
68189;DHT22;66299;47.514;19.218;2023-01-30T13:49:37;1.58;85.14
68189;DHT22;66299;47.514;19.218;2023-01-30T15:58:09;1.00;91.48
68189;DHT22;66299;47.514;19.218;2023-01-30T16:00:43;1.00;91.88
68189;DHT22;66299;47.514;19.218;2023-01-30T16:03:17;1.10;91.54
68189;DHT22;66299;47.514;19.218;2023-01-30T16:05:46;1.09;91.52
68189;DHT22;66299;47.514;19.218;2023-01-30T16:08:21;1.12;91.67
68189;DHT22;66299;47.514;19.218;2023-01-30T16:10:50;1.12;92.10
68189;DHT22;66299;47.514;19.218;2023-01-30T16:13:22;1.15;91.86
68189;DHT22;66299;47.514;19.218;2023-01-30T16:15:55;1.10;92.43
68189;DHT22;66299;47.514;19.218;2023-01-30T16:18:32;1.10;92.50
68189;DHT22;66299;47.514;19.218;2023-01-30T16:21:06;1.12;92.35
68189;DHT22;66299;47.514;19.218;2023-01-30T16:23:39;1.06;92.16
68189;DHT22;66299;47.514;19.218;2023-01-30T16:26:13;1.09;91.90
68189;DHT22;66299;47.514;19.218;2023-01-30T16:28:45;1.12;91.65
68189;DHT22;66299;47.514;19.218;2023-01-30T16:31:14;1.15;91.57
68189;DHT22;66299;47.514;19.218;2023-01-30T16:33:52;1.07;91.59
68189;DHT22;66299;47.514;19.218;2023-01-30T16:36:39;1.07;91.85
68189;DHT22;66299;47.514;19.218;2023-01-30T16:39:29;1.02;92.83
68189;DHT22;66299;47.514;19.218;2023-01-30T16:41:59;1.06;92.68
68189;DHT22;66299;47.514;19.218;2023-01-30T16:44:30;0.95;93.60
68189;DHT22;66299;47.514;19.218;2023-01-30T16:47:02;0.95;93.96
68189;DHT22;66299;47.514;19.218;2023-01-30T16:49:40;0.86;94.96
68189;DHT22;66299;47.514;19.218;2023-01-30T16:52:16;0.88;95.52
68189;DHT22;66299;47.514;19.218;2023-01-30T16:54:49;0.82;95.86
68189;DHT22;66299;47.514;19.218;2023-01-30T16:57:29;0.79;96.20
68189;DHT22;66299;47.514;19.218;2023-01-30T17:00:06;0.82;96.53
68189;DHT22;66299;47.514;19.218;2023-01-30T17:02:40;0.74;96.93
68189;DHT22;66299;47.514;19.218;2023-01-30T17:05:17;0.65;97.46
68189;DHT22;66299;47.514;19.218;2023-01-30T17:07:49;0.57;97.69
68189;DHT22;66299;47.514;19.218;2023-01-30T17:10:51;0.62;97.93
68189;DHT22;66299;47.514;19.218;2023-01-30T17:13:32;0.61;98.26
68189;DHT22;66299;47.514;19.218;2023-01-30T17:16:29;0.62;98.13
68189;DHT22;66299;47.514;19.218;2023-01-30T17:18:59;0.68;97.84
68189;DHT22;66299;47.514;19.218;2023-01-30T17:21:30;0.69;97.80
68189;DHT22;66299;47.514;19.218;2023-01-30T17:24:02;0.68;98.12
68189;DHT22;66299;47.514;19.218;2023-01-30T17:26:36;0.72;97.99
68189;DHT22;66299;47.514;19.218;2023-01-30T17:29:10;0.75;97.88
68189;DHT22;66299;47.514;19.218;2023-01-30T17:31:57;0.83;97.41
68189;DHT22;66299;47.514;19.218;2023-01-30T17:34:26;0.81;97.48
68189;DHT22;66299;47.514;19.218;2023-01-30T17:36:55;0.79;97.60
68189;DHT22;66299;47.514;19.218;2023-01-30T17:39:23;0.82;97.36
68189;DHT22;66299;47.514;19.218;2023-01-30T17:41:53;0.88;97.07
68189;DHT22;66299;47.514;19.218;2023-01-30T17:44:22;0.93;97.11
68189;DHT22;66299;47.514;19.218;2023-01-30T17:46:56;1.00;96.88
68189;DHT22;66299;47.514;19.218;2023-01-30T17:49:25;1.06;96.91
68189;DHT22;66299;47.514;19.218;2023-01-30T17:51:55;1.03;96.88
68189;DHT22;66299;47.514;19.218;2023-01-30T17:54:26;1.10;96.71
68189;DHT22;66299;47.514;19.218;2023-01-30T17:56:59;1.12;96.70
68189;DHT22;66299;47.514;19.218;2023-01-30T17:59:29;1.09;96.39
68189;DHT22;66299;47.514;19.218;2023-01-30T18:02:03;1.07;96.61
68189;DHT22;66299;47.514;19.218;2023-01-30T18:04:33;1.03;96.81
68189;DHT22;66299;47.514;19.218;2023-01-30T18:07:07;0.99;96.72
68189;DHT22;66299;47.514;19.218;2023-01-30T18:09:40;0.99;97.00